createdAt,value
2023-05-15T00:01:51.831Z,60.37
2023-05-15T00:04:32.174Z,60.46
2023-05-15T00:08:12.001Z,60.49
2023-05-15T00:11:29.735Z,60.47
2023-05-15T00:14:45.384Z,60.66
2023-05-15T00:17:33.115Z,60.60
2023-05-15T00:20:53.575Z,60.58
2023-05-15T00:23:58.646Z,60.66
2023-05-15T00:27:25.649Z,60.62
2023-05-15T00:30:53.415Z,60.68
2023-05-15T00:34:08.046Z,60.80
2023-05-15T00:37:07.964Z,60.87
2023-05-15T00:39:53.021Z,60.80
2023-05-15T00:42:54.137Z,60.82
2023-05-15T00:45:59.409Z,60.83
2023-05-15T00:49:18.621Z,60.76
2023-05-15T00:52:37.589Z,60.97
2023-05-15T00:55:34.843Z,61.21
2023-05-15T00:59:00.768Z,61.37
2023-05-15T01:02:41.436Z,61.36
2023-05-15T01:05:41.863Z,61.49
2023-05-15T01:09:09.993Z,61.68
2023-05-15T01:12:02.827Z,61.79
2023-05-15T01:15:00.037Z,61.96
2023-05-15T01:18:49.557Z,63.06
2023-05-15T01:22:04.100Z,64.00
2023-05-15T01:25:36.904Z,63.64
2023-05-15T01:28:22.453Z,62.92
2023-05-15T01:31:18.566Z,62.04
2023-05-15T01:35:00.053Z,62.01
2023-05-15T01:38:13.653Z,61.64
2023-05-15T01:40:57.135Z,61.04
2023-05-15T01:43:59.537Z,60.56
2023-05-15T01:47:00.881Z,59.75
2023-05-15T01:49:43.420Z,59.10
2023-05-15T01:52:29.980Z,59.23
2023-05-15T01:55:21.217Z,59.51
2023-05-15T01:58:02.389Z,59.86
2023-05-15T02:00:40.263Z,60.35
2023-05-15T02:03:34.027Z,60.63
2023-05-15T02:06:37.753Z,60.99
2023-05-15T02:10:30.271Z,61.16
2023-05-15T02:13:47.458Z,62.38
2023-05-15T02:17:09.130Z,63.20
2023-05-15T02:20:06.083Z,62.85
2023-05-15T02:23:15.972Z,62.48
2023-05-15T02:26:47.237Z,62.34
2023-05-15T02:30:11.530Z,62.20
2023-05-15T02:33:08.132Z,61.98
2023-05-15T02:36:28.255Z,61.72
2023-05-15T02:39:28.184Z,61.39
2023-05-15T02:42:25.507Z,61.07
2023-05-15T02:45:13.791Z,60.99
2023-05-15T02:48:35.442Z,60.77
2023-05-15T02:51:22.254Z,60.89
2023-05-15T02:54:23.786Z,60.66
2023-05-15T02:57:54.467Z,60.67
2023-05-15T03:00:50.537Z,60.74
2023-05-15T03:03:53.028Z,60.35
2023-05-15T03:07:18.167Z,60.39
2023-05-15T03:11:14.238Z,60.49
2023-05-15T03:15:13.962Z,60.50
2023-05-15T03:18:20.507Z,60.48
2023-05-15T03:20:59.437Z,60.28
2023-05-15T03:23:45.276Z,60.24
2023-05-15T03:27:17.103Z,60.40
2023-05-15T03:30:22.881Z,60.51
2023-05-15T03:33:30.398Z,60.54
2023-05-15T03:36:25.428Z,60.49
2023-05-15T03:39:19.745Z,60.44
2023-05-15T03:42:40.967Z,60.48
2023-05-15T03:45:34.563Z,60.22
2023-05-15T03:48:50.730Z,59.20
2023-05-15T03:52:14.391Z,58.33
2023-05-15T03:55:07.026Z,58.77
2023-05-15T03:58:14.948Z,59.25
2023-05-15T04:00:54.940Z,59.67
2023-05-15T04:03:49.194Z,60.40
2023-05-15T04:06:52.081Z,60.66
2023-05-15T04:10:09.135Z,60.88
2023-05-15T04:12:46.698Z,61.98
2023-05-15T04:15:39.045Z,62.81
2023-05-15T04:18:55.029Z,62.93
2023-05-15T04:22:10.183Z,62.83
2023-05-15T04:25:49.258Z,62.67
2023-05-15T04:29:03.920Z,62.30
2023-05-15T04:32:20.121Z,62.19
2023-05-15T04:35:13.556Z,61.98
2023-05-15T04:37:49.300Z,61.76
2023-05-15T04:40:20.243Z,61.41
2023-05-15T04:42:58.897Z,61.14
2023-05-15T04:45:31.007Z,61.00
2023-05-15T04:48:04.411Z,60.92
2023-05-15T04:51:04.635Z,61.01
2023-05-15T04:54:05.960Z,60.97
2023-05-15T04:57:47.381Z,60.95
2023-05-15T05:00:55.579Z,60.84
2023-05-15T05:04:23.438Z,60.62
2023-05-15T05:07:53.658Z,60.61
2023-05-15T05:11:04.011Z,60.33
2023-05-15T05:14:56.426Z,60.20
2023-05-15T05:17:28.402Z,60.10
2023-05-15T05:21:04.362Z,59.83
2023-05-15T05:24:47.680Z,58.71
2023-05-15T05:27:18.717Z,58.54
2023-05-15T05:30:48.421Z,58.95
2023-05-15T05:33:57.181Z,59.02
2023-05-15T05:37:25.984Z,59.87
2023-05-15T05:40:54.242Z,59.61
2023-05-15T05:44:00.357Z,59.95
2023-05-15T05:47:12.110Z,60.29
2023-05-15T05:50:15.607Z,60.47
2023-05-15T05:53:37.581Z,60.69
2023-05-15T05:56:38.359Z,60.81
2023-05-15T05:59:35.952Z,61.04
2023-05-15T06:02:40.823Z,61.64
2023-05-15T06:05:27.626Z,62.43
2023-05-15T06:08:45.828Z,62.77
2023-05-15T06:12:08.463Z,62.72
2023-05-15T06:15:45.836Z,61.93
2023-05-15T06:19:19.636Z,61.55
2023-05-15T06:23:00.078Z,61.03
2023-05-15T06:25:59.249Z,60.66
2023-05-15T06:29:12.324Z,59.29
2023-05-15T06:33:00.187Z,58.61
2023-05-15T06:36:28.807Z,58.46
2023-05-15T06:39:05.519Z,58.52
2023-05-15T06:42:10.609Z,58.43
2023-05-15T06:45:55.154Z,58.74
2023-05-15T06:49:20.791Z,58.69
2023-05-15T06:52:51.762Z,58.98
2023-05-15T06:56:45.214Z,59.24
2023-05-15T07:00:39.838Z,59.67
2023-05-15T07:04:49.370Z,59.96
2023-05-15T07:07:49.829Z,60.33
2023-05-15T07:11:43.709Z,60.60
2023-05-15T07:14:40.041Z,60.64
2023-05-15T07:17:25.081Z,60.74
2023-05-15T07:20:30.808Z,60.92
2023-05-15T07:24:36.679Z,61.12
2023-05-15T07:28:47.393Z,61.07
2023-05-15T07:32:30.582Z,61.12
2023-05-15T07:35:04.817Z,61.64
2023-05-15T07:38:01.512Z,62.42
2023-05-15T07:40:32.843Z,62.42
2023-05-15T07:43:06.398Z,61.93
2023-05-15T07:45:35.262Z,60.91
2023-05-15T07:48:43.708Z,59.78
2023-05-15T07:51:18.492Z,58.20
2023-05-15T07:53:50.049Z,58.38
2023-05-15T07:56:18.863Z,58.44
2023-05-15T07:58:50.311Z,58.07
2023-05-15T08:01:22.018Z,57.98
2023-05-15T08:03:59.864Z,58.25
2023-05-15T08:06:28.850Z,58.26
2023-05-15T08:09:05.240Z,58.27
2023-05-15T08:11:34.187Z,58.44
2023-05-15T08:14:05.507Z,58.49
2023-05-15T08:16:36.788Z,57.97
2023-05-15T08:19:10.371Z,58.60
2023-05-15T08:21:42.103Z,58.78
2023-05-15T08:24:10.410Z,58.87
2023-05-15T08:26:39.326Z,58.86
2023-05-15T08:29:11.693Z,58.87
2023-05-15T08:31:54.326Z,58.68
2023-05-15T08:34:22.837Z,58.76
2023-05-15T08:36:54.130Z,58.50
2023-05-15T08:39:22.977Z,57.32
2023-05-15T08:42:33.477Z,57.30
2023-05-15T08:45:13.124Z,56.75
2023-05-15T08:47:44.259Z,56.36
2023-05-15T08:50:20.058Z,56.38
2023-05-15T08:53:04.756Z,56.47
2023-05-15T08:55:33.619Z,56.49
2023-05-15T08:58:13.141Z,56.54
2023-05-15T09:00:44.482Z,56.59
2023-05-15T09:03:16.833Z,56.29
2023-05-15T09:05:52.947Z,56.10
2023-05-15T09:08:30.650Z,55.94
2023-05-15T09:11:04.307Z,54.69
2023-05-15T09:13:55.978Z,54.53
2023-05-15T09:16:32.258Z,54.87
2023-05-15T09:19:01.937Z,55.01
2023-05-15T09:21:42.707Z,54.85
2023-05-15T09:24:28.378Z,54.75
2023-05-15T09:27:29.919Z,54.81
2023-05-15T09:30:10.597Z,54.21
2023-05-15T09:32:42.506Z,54.31
2023-05-15T09:35:47.373Z,54.34
2023-05-15T09:38:35.077Z,54.57
2023-05-15T09:41:08.927Z,54.63
2023-05-15T09:43:39.188Z,53.70
2023-05-15T09:46:14.788Z,53.57
2023-05-15T09:48:45.818Z,53.82
2023-05-15T09:51:48.673Z,54.01
2023-05-15T09:54:24.473Z,54.27
2023-05-15T09:57:19.081Z,54.37
2023-05-15T10:00:05.453Z,54.05
2023-05-15T10:02:41.686Z,53.77
2023-05-15T10:05:13.816Z,53.50
2023-05-15T10:07:52.995Z,53.43
2023-05-15T10:10:26.112Z,53.32
2023-05-15T10:13:03.079Z,53.38
2023-05-15T10:15:43.864Z,53.49
2023-05-15T10:18:14.397Z,53.84
2023-05-15T10:20:43.159Z,53.81
2023-05-15T10:23:15.833Z,53.88
2023-05-15T10:25:53.149Z,53.57
2023-05-15T10:28:28.793Z,53.56
2023-05-15T10:31:01.755Z,53.26
2023-05-15T10:33:30.774Z,52.53
2023-05-15T10:36:00.115Z,52.04
2023-05-15T10:38:29.790Z,52.30
2023-05-15T10:41:21.013Z,52.60
2023-05-15T10:43:49.917Z,52.96
2023-05-15T10:46:19.941Z,53.23
2023-05-15T10:48:51.040Z,53.66
2023-05-15T10:51:44.651Z,53.94
2023-05-15T10:54:26.149Z,54.53
2023-05-15T10:56:57.763Z,55.56
2023-05-15T10:59:35.910Z,55.70
2023-05-15T11:02:39.814Z,56.04
2023-05-15T11:05:14.324Z,56.29
2023-05-15T11:08:31.099Z,56.91
2023-05-15T11:10:59.694Z,57.14
2023-05-15T11:14:07.975Z,58.10
2023-05-15T11:16:57.537Z,58.92
2023-05-15T11:19:58.357Z,59.44
2023-05-15T11:22:33.161Z,60.10
2023-05-15T11:26:11.636Z,60.19
2023-05-15T11:30:17.719Z,60.20
2023-05-15T11:33:41.161Z,60.53
2023-05-15T11:37:02.248Z,60.77
2023-05-15T11:39:39.988Z,60.96
2023-05-15T11:43:00.850Z,61.23
2023-05-15T11:45:56.174Z,61.11
2023-05-15T11:49:07.796Z,61.08
2023-05-15T11:51:44.383Z,61.27
2023-05-15T11:54:23.432Z,61.61
2023-05-15T11:58:08.978Z,61.70
2023-05-15T12:01:40.142Z,61.94
2023-05-15T12:04:37.387Z,63.99
2023-05-15T12:07:56.954Z,64.37
2023-05-15T12:11:18.361Z,64.01
2023-05-15T12:14:49.422Z,64.13
2023-05-15T12:18:04.790Z,63.78
2023-05-15T12:20:54.879Z,63.40
2023-05-15T12:24:35.752Z,63.25
2023-05-15T12:28:38.027Z,63.19
2023-05-15T12:32:10.608Z,62.82
2023-05-15T12:36:05.678Z,62.82
2023-05-15T12:39:40.275Z,62.83
2023-05-15T12:42:43.222Z,63.02
2023-05-15T12:45:44.411Z,62.92
2023-05-15T12:49:14.371Z,62.91
2023-05-15T12:52:14.746Z,62.75
2023-05-15T12:55:36.529Z,62.99
2023-05-15T12:58:46.074Z,62.85
2023-05-15T13:01:19.104Z,62.87
2023-05-15T13:04:11.587Z,62.58
2023-05-15T13:07:01.849Z,62.39
2023-05-15T13:10:21.062Z,62.42
2023-05-15T13:13:07.356Z,62.75
2023-05-15T13:16:30.520Z,62.87
2023-05-15T13:19:26.258Z,63.12
2023-05-15T13:23:16.372Z,63.24
2023-05-15T13:26:25.027Z,63.36
2023-05-15T13:29:19.631Z,63.65
2023-05-15T13:31:48.516Z,63.66
2023-05-15T13:34:20.200Z,63.79
2023-05-15T13:36:51.833Z,63.64
2023-05-15T13:39:33.646Z,63.57
2023-05-15T13:42:13.494Z,63.90
2023-05-15T13:44:53.807Z,63.92
2023-05-15T13:47:27.389Z,63.93
2023-05-15T13:50:49.715Z,63.81
2023-05-15T13:53:53.397Z,64.02
2023-05-15T13:56:37.344Z,64.38
2023-05-15T13:59:54.260Z,64.56
2023-05-15T14:03:35.004Z,64.84
2023-05-15T14:06:54.951Z,65.12
2023-05-15T14:09:23.705Z,65.25
2023-05-15T14:11:55.214Z,65.44
2023-05-15T14:14:23.533Z,65.25
2023-05-15T14:16:54.904Z,65.13
2023-05-15T14:19:26.817Z,65.04
2023-05-15T14:21:55.660Z,64.95
2023-05-15T14:24:24.305Z,65.24
2023-05-15T14:26:58.488Z,65.35
2023-05-15T14:29:30.340Z,65.57
2023-05-15T14:32:02.083Z,65.64
2023-05-15T14:34:43.721Z,65.63
2023-05-15T14:37:18.917Z,65.85
2023-05-15T14:39:52.735Z,65.63
2023-05-15T14:42:27.363Z,65.43
2023-05-15T14:45:05.269Z,65.66
2023-05-15T14:47:47.142Z,65.81
2023-05-15T14:50:23.470Z,65.70
2023-05-15T14:53:02.704Z,65.94
2023-05-15T14:55:39.280Z,66.07
2023-05-15T14:58:11.466Z,66.28
2023-05-15T15:00:53.342Z,66.59
2023-05-15T15:03:37.919Z,66.75
2023-05-15T15:06:35.480Z,66.91
2023-05-15T15:09:20.844Z,67.11
2023-05-15T15:12:05.609Z,67.55
2023-05-15T15:15:15.247Z,67.97
2023-05-15T15:17:52.269Z,68.08
2023-05-15T15:20:25.475Z,67.90
2023-05-15T15:23:02.408Z,67.78
2023-05-15T15:25:34.579Z,67.99
2023-05-15T15:28:05.709Z,68.46
2023-05-15T15:30:34.363Z,68.55
2023-05-15T15:33:07.564Z,68.59
2023-05-15T15:35:38.529Z,68.75
2023-05-15T15:38:07.219Z,68.89
2023-05-15T15:40:36.029Z,68.81
2023-05-15T15:43:04.641Z,68.84
2023-05-15T15:45:33.113Z,69.14
2023-05-15T15:48:06.904Z,69.28
2023-05-15T15:50:35.567Z,69.30
2023-05-15T15:53:04.482Z,69.47
2023-05-15T15:55:47.020Z,69.53
2023-05-15T15:58:23.944Z,69.75
2023-05-15T16:01:02.941Z,69.90
2023-05-15T16:03:31.799Z,70.09
2023-05-15T16:06:03.372Z,70.21
2023-05-15T16:08:34.118Z,70.34
2023-05-15T16:11:12.263Z,70.33
2023-05-15T16:13:45.547Z,70.40
2023-05-15T16:16:25.331Z,70.43
2023-05-15T16:19:28.709Z,70.68
2023-05-15T16:23:14.266Z,70.76
2023-05-15T16:26:37.920Z,70.95
2023-05-15T16:30:00.642Z,71.09
2023-05-15T16:32:31.919Z,71.12
2023-05-15T16:35:09.136Z,71.31
2023-05-15T16:38:31.115Z,71.42
2023-05-15T16:42:00.620Z,71.58
2023-05-15T16:45:59.004Z,71.91
2023-05-15T16:49:57.201Z,72.04
2023-05-15T16:53:37.739Z,72.23
2023-05-15T16:56:53.476Z,72.60
2023-05-15T17:00:46.403Z,72.82
2023-05-15T17:04:47.155Z,72.98
2023-05-15T17:08:26.826Z,73.11
2023-05-15T17:12:28.741Z,73.08
2023-05-15T17:15:37.905Z,73.16
2023-05-15T17:19:37.433Z,73.21
2023-05-15T17:22:51.950Z,73.33
2023-05-15T17:26:17.537Z,73.45
2023-05-15T17:29:38.245Z,73.44
2023-05-15T17:32:16.214Z,73.54
2023-05-15T17:35:10.416Z,73.66
2023-05-15T17:38:22.654Z,73.70
2023-05-15T17:41:44.964Z,73.84
2023-05-15T17:45:04.736Z,73.88
2023-05-15T17:48:31.103Z,73.92
2023-05-15T17:52:15.161Z,74.05
2023-05-15T17:56:17.362Z,74.29
2023-05-15T17:59:31.881Z,74.29
2023-05-15T18:03:08.241Z,74.37
2023-05-15T18:06:36.884Z,74.51
2023-05-15T18:09:31.285Z,74.56
2023-05-15T18:12:44.400Z,74.65
2023-05-15T18:16:21.425Z,74.68
2023-05-15T18:19:50.156Z,74.70
2023-05-15T18:22:59.705Z,74.70
2023-05-15T18:26:49.056Z,74.77
2023-05-15T18:30:05.280Z,74.80
2023-05-15T18:32:49.030Z,74.72
2023-05-15T18:36:34.275Z,74.80
2023-05-15T18:39:48.052Z,75.00
2023-05-15T18:43:03.105Z,74.99
2023-05-15T18:46:28.420Z,75.05
2023-05-15T18:50:18.499Z,74.93
2023-05-15T18:53:41.384Z,74.90
2023-05-15T18:56:49.311Z,74.92
2023-05-15T19:00:47.845Z,75.00
2023-05-15T19:04:38.276Z,75.14
2023-05-15T19:08:12.967Z,75.25
2023-05-15T19:11:21.912Z,75.34
2023-05-15T19:14:42.894Z,75.41
2023-05-15T19:18:14.479Z,75.59
2023-05-15T19:21:33.719Z,75.59
2023-05-15T19:24:45.047Z,75.68
2023-05-15T19:28:20.571Z,75.75
2023-05-15T19:31:44.028Z,75.73
2023-05-15T19:34:57.185Z,75.63
2023-05-15T19:38:26.534Z,75.66
2023-05-15T19:42:00.153Z,75.65
2023-05-15T19:44:47.982Z,75.55
2023-05-15T19:47:53.213Z,75.49
2023-05-15T19:51:09.354Z,75.43
2023-05-15T19:54:48.425Z,75.49
2023-05-15T19:58:36.847Z,75.60
2023-05-15T20:01:53.348Z,75.56
2023-05-15T20:05:18.119Z,75.55
2023-05-15T20:09:09.322Z,75.50
2023-05-15T20:12:48.775Z,75.45
2023-05-15T20:16:25.962Z,75.33
2023-05-15T20:20:08.286Z,75.26
2023-05-15T20:23:24.960Z,75.23
2023-05-15T20:27:16.986Z,75.23
2023-05-15T20:30:42.925Z,75.11
2023-05-15T20:34:34.411Z,75.00
2023-05-15T20:38:22.609Z,74.92
2023-05-15T20:41:39.979Z,74.73
2023-05-15T20:45:19.253Z,74.57
2023-05-15T20:48:45.348Z,74.51
2023-05-15T20:52:38.564Z,74.40
2023-05-15T20:56:48.268Z,74.33
2023-05-15T21:00:58.254Z,74.40
2023-05-15T21:04:49.241Z,74.39
2023-05-15T21:08:28.653Z,74.35
2023-05-15T21:12:12.527Z,74.35
2023-05-15T21:15:58.013Z,74.37
2023-05-15T21:20:07.467Z,74.42
2023-05-15T21:24:17.003Z,74.42
2023-05-15T21:27:49.321Z,74.39
2023-05-15T21:30:59.700Z,74.32
2023-05-15T21:34:54.594Z,74.36
2023-05-15T21:39:04.044Z,74.45
2023-05-15T21:43:03.639Z,74.49
2023-05-15T21:46:30.745Z,74.39
2023-05-15T21:50:31.383Z,74.24
2023-05-15T21:54:33.821Z,74.05
2023-05-15T21:58:09.470Z,73.82
2023-05-15T22:01:44.853Z,73.82
2023-05-15T22:05:52.617Z,73.83
2023-05-15T22:09:29.690Z,73.78
2023-05-15T22:13:24.364Z,73.82
2023-05-15T22:17:26.494Z,73.82
2023-05-15T22:21:25.759Z,73.77
2023-05-15T22:24:25.822Z,73.79
2023-05-15T22:28:11.048Z,73.76
2023-05-15T22:32:03.318Z,73.77
2023-05-15T22:35:12.296Z,73.71
2023-05-15T22:38:32.446Z,73.54
2023-05-15T22:42:21.705Z,73.38
2023-05-15T22:45:45.702Z,73.31
2023-05-15T22:48:37.291Z,73.26
2023-05-15T22:51:55.051Z,73.19
2023-05-15T22:55:54.611Z,73.37
2023-05-15T22:59:17.453Z,73.33
2023-05-15T23:02:43.482Z,73.31
2023-05-15T23:06:42.715Z,73.33
2023-05-15T23:10:09.902Z,73.26
2023-05-15T23:13:45.344Z,73.46
2023-05-15T23:17:38.496Z,73.34
2023-05-15T23:21:04.787Z,73.29
2023-05-15T23:24:21.221Z,73.28
2023-05-15T23:26:52.928Z,73.21
2023-05-15T23:29:49.209Z,73.20
2023-05-15T23:33:03.338Z,73.23
2023-05-15T23:35:38.250Z,73.27
2023-05-15T23:38:42.042Z,73.29
2023-05-15T23:42:11.822Z,73.36
2023-05-15T23:46:03.840Z,73.43
2023-05-15T23:49:46.997Z,73.46
2023-05-15T23:53:24.725Z,73.50
2023-05-15T23:56:59.428Z,73.48
2023-05-15T23:59:51.263Z,73.53
